CPX997 Details

Departure: Los Angeles International Airport (KLAX)
Arrival: Incheon International Airport (RKSI) at N/A
Route: SUMMR1 MCKEY LIBBO BRINY BOARS BOXER FULMR FASEL 5300N/14000W 5500N/15000W 5600N/16000W ONEOX B757 NULUK R220 NUZAN NIPPI R220 NOGAL R220 NANNO R220 NODAN NIKON IXE Y88 CHINO Y16 SAPRA G585 CUN CUN1M
Notes:


Current Weather Information
KLAX 230653Z 07003KT 10SM CLR 22/09 A2995 RMK AO2 SLP136 T02170089
RKSI 230730Z 04005KT CAVOK 20/09 Q1018 NOSIG